Union Mills, Washington
Current Conditions -  °F | °C
As of 1:54 PM on Monday 26 Jan 2015 (Local Time) from KOLM Reporting Station
Clear Clear  
Wind Chill: 62°   Ceiling: Unl
Heat Index: 62°   Visibility: 10mi
Dew Point: 45°   Wind: 13mph
Humidity: 53%   Direction: 220°SW
Pressure: 29.92"   Gusts: NA
Location:  46.9755°N, 122.872°W
Report Text: KOLM 262154Z 22011KT 10SM CLR 17/07 A2992 RMK AO2 SLP133 T01670072
Loading
Personal Weather Stations






























Interactive Weather Map New forecast layout! Learn more

10-Day Weather Forecast

Advertisements
Track Severe Weather on mobile